sensor_id;sensor_type;location;lat;lon;timestamp;P1;durP1;ratioP1;P2;durP2;ratioP2
8538;SDS011;4307;53.868;11.680;2022-11-12T00:00:26;20.10;;;12.87;;
8538;SDS011;4307;53.868;11.680;2022-11-12T00:02:53;19.10;;;11.80;;
8538;SDS011;4307;53.868;11.680;2022-11-12T00:05:21;19.77;;;11.87;;
8538;SDS011;4307;53.868;11.680;2022-11-12T00:07:47;18.13;;;10.17;;
8538;SDS011;4307;53.868;11.680;2022-11-12T00:10:14;18.07;;;10.80;;
8538;SDS011;4307;53.868;11.680;2022-11-12T00:12:42;21.57;;;11.90;;
8538;SDS011;4307;53.868;11.680;2022-11-12T00:15:09;14.87;;;9.80;;
8538;SDS011;4307;53.868;11.680;2022-11-12T00:17:36;19.57;;;11.37;;
8538;SDS011;4307;53.868;11.680;2022-11-12T00:20:03;17.40;;;10.47;;
8538;SDS011;4307;53.868;11.680;2022-11-12T00:22:32;15.17;;;10.33;;
8538;SDS011;4307;53.868;11.680;2022-11-12T00:24:59;19.73;;;11.93;;
8538;SDS011;4307;53.868;11.680;2022-11-12T00:27:26;17.90;;;11.27;;
8538;SDS011;4307;53.868;11.680;2022-11-12T00:29:53;19.30;;;12.27;;
8538;SDS011;4307;53.868;11.680;2022-11-12T00:32:19;19.67;;;12.00;;
8538;SDS011;4307;53.868;11.680;2022-11-12T00:34:47;16.07;;;11.67;;
8538;SDS011;4307;53.868;11.680;2022-11-12T00:37:14;18.50;;;11.73;;
8538;SDS011;4307;53.868;11.680;2022-11-12T00:39:42;19.60;;;11.03;;
8538;SDS011;4307;53.868;11.680;2022-11-12T00:42:08;18.23;;;11.80;;
8538;SDS011;4307;53.868;11.680;2022-11-12T00:44:35;14.90;;;10.40;;
8538;SDS011;4307;53.868;11.680;2022-11-12T00:47:02;21.30;;;11.60;;
8538;SDS011;4307;53.868;11.680;2022-11-12T00:49:29;21.37;;;12.10;;
8538;SDS011;4307;53.868;11.680;2022-11-12T00:51:55;19.60;;;12.50;;
8538;SDS011;4307;53.868;11.680;2022-11-12T00:54:22;20.00;;;12.23;;
8538;SDS011;4307;53.868;11.680;2022-11-12T00:56:50;20.47;;;11.30;;
8538;SDS011;4307;53.868;11.680;2022-11-12T00:59:17;20.90;;;11.90;;
8538;SDS011;4307;53.868;11.680;2022-11-12T01:01:43;19.43;;;11.37;;
8538;SDS011;4307;53.868;11.680;2022-11-12T01:04:10;17.53;;;11.50;;
8538;SDS011;4307;53.868;11.680;2022-11-12T01:06:37;16.13;;;11.33;;
8538;SDS011;4307;53.868;11.680;2022-11-12T01:09:05;16.63;;;11.13;;
8538;SDS011;4307;53.868;11.680;2022-11-12T01:11:32;16.97;;;11.03;;
8538;SDS011;4307;53.868;11.680;2022-11-12T01:14:01;17.13;;;11.50;;
8538;SDS011;4307;53.868;11.680;2022-11-12T01:16:31;16.37;;;10.77;;
8538;SDS011;4307;53.868;11.680;2022-11-12T01:19:01;14.17;;;8.57;;
8538;SDS011;4307;53.868;11.680;2022-11-12T01:21:29;17.27;;;10.80;;
8538;SDS011;4307;53.868;11.680;2022-11-12T01:23:58;16.00;;;9.13;;
8538;SDS011;4307;53.868;11.680;2022-11-12T01:26:25;18.87;;;11.53;;
8538;SDS011;4307;53.868;11.680;2022-11-12T01:28:53;15.27;;;10.63;;
8538;SDS011;4307;53.868;11.680;2022-11-12T01:31:25;20.50;;;11.83;;
8538;SDS011;4307;53.868;11.680;2022-11-12T01:33:55;22.30;;;10.60;;
8538;SDS011;4307;53.868;11.680;2022-11-12T01:36:23;16.07;;;10.40;;
8538;SDS011;4307;53.868;11.680;2022-11-12T01:38:51;18.20;;;11.17;;
8538;SDS011;4307;53.868;11.680;2022-11-12T01:41:20;17.40;;;10.57;;
8538;SDS011;4307;53.868;11.680;2022-11-12T01:46:35;21.30;;;12.47;;
8538;SDS011;4307;53.868;11.680;2022-11-12T01:49:07;16.33;;;11.10;;
8538;SDS011;4307;53.868;11.680;2022-11-12T01:51:40;22.13;;;11.33;;
8538;SDS011;4307;53.868;11.680;2022-11-12T01:54:09;17.50;;;10.50;;
8538;SDS011;4307;53.868;11.680;2022-11-12T01:56:39;19.97;;;11.17;;
8538;SDS011;4307;53.868;11.680;2022-11-12T01:59:06;17.53;;;10.63;;
8538;SDS011;4307;53.868;11.680;2022-11-12T02:01:40;16.20;;;10.90;;
8538;SDS011;4307;53.868;11.680;2022-11-12T02:04:06;15.10;;;10.37;;
8538;SDS011;4307;53.868;11.680;2022-11-12T02:06:33;17.67;;;9.93;;
8538;SDS011;4307;53.868;11.680;2022-11-12T02:09:01;16.07;;;10.10;;
8538;SDS011;4307;53.868;11.680;2022-11-12T02:11:28;21.00;;;11.57;;
8538;SDS011;4307;53.868;11.680;2022-11-12T02:13:55;16.23;;;10.67;;
8538;SDS011;4307;53.868;11.680;2022-11-12T02:16:29;20.10;;;9.97;;
8538;SDS011;4307;53.868;11.680;2022-11-12T02:18:59;12.60;;;7.40;;
8538;SDS011;4307;53.868;11.680;2022-11-12T02:21:27;20.23;;;10.57;;
8538;SDS011;4307;53.868;11.680;2022-11-12T02:23:58;14.87;;;9.53;;
8538;SDS011;4307;53.868;11.680;2022-11-12T02:26:28;15.93;;;10.20;;
8538;SDS011;4307;53.868;11.680;2022-11-12T02:28:56;17.17;;;11.13;;
8538;SDS011;4307;53.868;11.680;2022-11-12T02:31:23;16.33;;;10.40;;
8538;SDS011;4307;53.868;11.680;2022-11-12T02:33:50;17.67;;;12.07;;
8538;SDS011;4307;53.868;11.680;2022-11-12T02:36:17;14.97;;;9.83;;
8538;SDS011;4307;53.868;11.680;2022-11-12T02:38:45;14.60;;;10.10;;
8538;SDS011;4307;53.868;11.680;2022-11-12T02:41:11;18.03;;;11.23;;
8538;SDS011;4307;53.868;11.680;2022-11-12T02:43:38;15.77;;;10.73;;
8538;SDS011;4307;53.868;11.680;2022-11-12T02:46:05;25.00;;;12.10;;
8538;SDS011;4307;53.868;11.680;2022-11-12T02:48:32;17.57;;;10.23;;
8538;SDS011;4307;53.868;11.680;2022-11-12T02:50:59;16.87;;;10.30;;
8538;SDS011;4307;53.868;11.680;2022-11-12T02:53:26;17.13;;;10.90;;
8538;SDS011;4307;53.868;11.680;2022-11-12T02:55:54;16.57;;;10.37;;
8538;SDS011;4307;53.868;11.680;2022-11-12T02:58:20;18.57;;;9.40;;
8538;SDS011;4307;53.868;11.680;2022-11-12T03:00:47;13.93;;;10.07;;
8538;SDS011;4307;53.868;11.680;2022-11-12T03:03:14;17.03;;;10.07;;
8538;SDS011;4307;53.868;11.680;2022-11-12T03:05:41;15.37;;;9.20;;
8538;SDS011;4307;53.868;11.680;2022-11-12T03:08:08;17.60;;;10.27;;
8538;SDS011;4307;53.868;11.680;2022-11-12T03:10:35;14.97;;;9.93;;
8538;SDS011;4307;53.868;11.680;2022-11-12T03:13:05;17.70;;;9.77;;
8538;SDS011;4307;53.868;11.680;2022-11-12T03:15:31;17.93;;;10.90;;
8538;SDS011;4307;53.868;11.680;2022-11-12T03:17:58;17.10;;;10.10;;
8538;SDS011;4307;53.868;11.680;2022-11-12T03:20:25;17.67;;;10.03;;
8538;SDS011;4307;53.868;11.680;2022-11-12T03:22:55;18.30;;;9.83;;
8538;SDS011;4307;53.868;11.680;2022-11-12T03:25:23;21.33;;;10.70;;
8538;SDS011;4307;53.868;11.680;2022-11-12T03:27:55;12.90;;;7.80;;
8538;SDS011;4307;53.868;11.680;2022-11-12T03:30:25;19.57;;;10.07;;
8538;SDS011;4307;53.868;11.680;2022-11-12T03:32:52;16.33;;;8.03;;
8538;SDS011;4307;53.868;11.680;2022-11-12T03:35:19;16.43;;;10.50;;
8538;SDS011;4307;53.868;11.680;2022-11-12T03:37:46;14.63;;;10.40;;
8538;SDS011;4307;53.868;11.680;2022-11-12T03:40:13;14.43;;;9.77;;
8538;SDS011;4307;53.868;11.680;2022-11-12T03:42:43;21.97;;;10.20;;
8538;SDS011;4307;53.868;11.680;2022-11-12T03:45:10;19.33;;;10.47;;
8538;SDS011;4307;53.868;11.680;2022-11-12T03:47:40;14.87;;;9.93;;
8538;SDS011;4307;53.868;11.680;2022-11-12T03:50:08;17.13;;;9.67;;
8538;SDS011;4307;53.868;11.680;2022-11-12T03:52:35;16.47;;;10.53;;
8538;SDS011;4307;53.868;11.680;2022-11-12T03:55:01;19.03;;;10.60;;
8538;SDS011;4307;53.868;11.680;2022-11-12T03:57:28;16.73;;;11.60;;
8538;SDS011;4307;53.868;11.680;2022-11-12T03:59:55;16.47;;;10.63;;
8538;SDS011;4307;53.868;11.680;2022-11-12T04:02:22;23.50;;;10.73;;
8538;SDS011;4307;53.868;11.680;2022-11-12T04:04:51;16.20;;;10.53;;
8538;SDS011;4307;53.868;11.680;2022-11-12T04:07:35;17.37;;;9.33;;
8538;SDS011;4307;53.868;11.680;2022-11-12T04:10:19;18.07;;;9.90;;
8538;SDS011;4307;53.868;11.680;2022-11-12T04:12:46;17.60;;;11.20;;
8538;SDS011;4307;53.868;11.680;2022-11-12T04:15:31;19.17;;;10.73;;
8538;SDS011;4307;53.868;11.680;2022-11-12T04:17:57;19.77;;;11.63;;
8538;SDS011;4307;53.868;11.680;2022-11-12T04:20:43;19.03;;;11.67;;
8538;SDS011;4307;53.868;11.680;2022-11-12T04:23:26;17.60;;;10.20;;
8538;SDS011;4307;53.868;11.680;2022-11-12T04:25:53;19.20;;;11.40;;
8538;SDS011;4307;53.868;11.680;2022-11-12T04:28:37;21.63;;;11.77;;
8538;SDS011;4307;53.868;11.680;2022-11-12T04:31:04;18.30;;;10.83;;
8538;SDS011;4307;53.868;11.680;2022-11-12T04:33:29;18.30;;;10.97;;
8538;SDS011;4307;53.868;11.680;2022-11-12T04:35:57;21.47;;;11.37;;
8538;SDS011;4307;53.868;11.680;2022-11-12T04:38:24;17.83;;;10.57;;
8538;SDS011;4307;53.868;11.680;2022-11-12T04:40:50;21.30;;;11.10;;
8538;SDS011;4307;53.868;11.680;2022-11-12T04:43:35;17.80;;;10.57;;
8538;SDS011;4307;53.868;11.680;2022-11-12T04:46:19;13.70;;;9.40;;
8538;SDS011;4307;53.868;11.680;2022-11-12T04:48:45;17.67;;;10.60;;
8538;SDS011;4307;53.868;11.680;2022-11-12T04:51:13;15.13;;;8.90;;
8538;SDS011;4307;53.868;11.680;2022-11-12T04:53:54;19.00;;;9.87;;
8538;SDS011;4307;53.868;11.680;2022-11-12T04:56:21;18.77;;;10.27;;
8538;SDS011;4307;53.868;11.680;2022-11-12T04:58:47;16.90;;;10.87;;
8538;SDS011;4307;53.868;11.680;2022-11-12T05:01:14;13.20;;;7.67;;
8538;SDS011;4307;53.868;11.680;2022-11-12T05:03:40;19.77;;;11.57;;
8538;SDS011;4307;53.868;11.680;2022-11-12T05:06:08;18.50;;;10.10;;
8538;SDS011;4307;53.868;11.680;2022-11-12T05:08:50;20.17;;;11.37;;
8538;SDS011;4307;53.868;11.680;2022-11-12T05:11:17;19.77;;;11.33;;
8538;SDS011;4307;53.868;11.680;2022-11-12T05:13:43;19.13;;;12.07;;
8538;SDS011;4307;53.868;11.680;2022-11-12T05:16:10;18.33;;;10.43;;
8538;SDS011;4307;53.868;11.680;2022-11-12T05:18:36;17.93;;;10.47;;
8538;SDS011;4307;53.868;11.680;2022-11-12T05:21:03;24.17;;;12.43;;
8538;SDS011;4307;53.868;11.680;2022-11-12T05:23:51;20.27;;;10.80;;
8538;SDS011;4307;53.868;11.680;2022-11-12T05:26:18;18.70;;;11.43;;
8538;SDS011;4307;53.868;11.680;2022-11-12T05:28:44;27.47;;;12.70;;
8538;SDS011;4307;53.868;11.680;2022-11-12T05:31:11;19.30;;;11.83;;
8538;SDS011;4307;53.868;11.680;2022-11-12T05:33:38;21.00;;;11.30;;
8538;SDS011;4307;53.868;11.680;2022-11-12T05:36:04;22.33;;;12.57;;
8538;SDS011;4307;53.868;11.680;2022-11-12T05:38:31;23.00;;;13.17;;
8538;SDS011;4307;53.868;11.680;2022-11-12T05:40:59;19.70;;;11.47;;
8538;SDS011;4307;53.868;11.680;2022-11-12T05:43:26;22.10;;;11.70;;
8538;SDS011;4307;53.868;11.680;2022-11-12T05:45:53;26.00;;;12.63;;
8538;SDS011;4307;53.868;11.680;2022-11-12T05:48:19;22.00;;;10.63;;
8538;SDS011;4307;53.868;11.680;2022-11-12T05:50:48;22.17;;;12.97;;
8538;SDS011;4307;53.868;11.680;2022-11-12T05:53:15;20.77;;;11.90;;
8538;SDS011;4307;53.868;11.680;2022-11-12T05:55:41;19.00;;;11.40;;
8538;SDS011;4307;53.868;11.680;2022-11-12T05:58:09;20.83;;;12.23;;
8538;SDS011;4307;53.868;11.680;2022-11-12T06:00:36;20.67;;;10.93;;
8538;SDS011;4307;53.868;11.680;2022-11-12T06:03:03;21.50;;;12.00;;
8538;SDS011;4307;53.868;11.680;2022-11-12T06:05:30;21.67;;;12.90;;
8538;SDS011;4307;53.868;11.680;2022-11-12T06:07:57;21.47;;;11.73;;
8538;SDS011;4307;53.868;11.680;2022-11-12T06:10:24;20.00;;;11.57;;
8538;SDS011;4307;53.868;11.680;2022-11-12T06:12:51;19.00;;;11.47;;
8538;SDS011;4307;53.868;11.680;2022-11-12T06:15:19;25.00;;;12.00;;
8538;SDS011;4307;53.868;11.680;2022-11-12T06:17:48;18.80;;;11.73;;
8538;SDS011;4307;53.868;11.680;2022-11-12T06:20:15;20.60;;;11.47;;
8538;SDS011;4307;53.868;11.680;2022-11-12T06:22:42;20.17;;;11.30;;
8538;SDS011;4307;53.868;11.680;2022-11-12T06:25:08;20.83;;;11.37;;
8538;SDS011;4307;53.868;11.680;2022-11-12T06:27:35;18.27;;;10.77;;
8538;SDS011;4307;53.868;11.680;2022-11-12T06:30:02;18.30;;;11.67;;
8538;SDS011;4307;53.868;11.680;2022-11-12T06:32:31;22.23;;;11.40;;
8538;SDS011;4307;53.868;11.680;2022-11-12T06:34:57;19.47;;;10.93;;
8538;SDS011;4307;53.868;11.680;2022-11-12T06:37:24;20.77;;;11.87;;
8538;SDS011;4307;53.868;11.680;2022-11-12T06:39:50;18.87;;;11.90;;
8538;SDS011;4307;53.868;11.680;2022-11-12T06:42:17;19.03;;;11.20;;
8538;SDS011;4307;53.868;11.680;2022-11-12T06:44:44;15.20;;;10.97;;
8538;SDS011;4307;53.868;11.680;2022-11-12T06:47:11;18.93;;;11.73;;
8538;SDS011;4307;53.868;11.680;2022-11-12T06:49:39;15.83;;;10.63;;
8538;SDS011;4307;53.868;11.680;2022-11-12T06:52:06;18.03;;;11.27;;
8538;SDS011;4307;53.868;11.680;2022-11-12T06:54:32;22.67;;;11.53;;
8538;SDS011;4307;53.868;11.680;2022-11-12T06:56:59;20.00;;;11.97;;
8538;SDS011;4307;53.868;11.680;2022-11-12T06:59:26;16.63;;;11.37;;
8538;SDS011;4307;53.868;11.680;2022-11-12T07:01:52;21.50;;;12.47;;
8538;SDS011;4307;53.868;11.680;2022-11-12T07:04:19;16.83;;;10.77;;
8538;SDS011;4307;53.868;11.680;2022-11-12T07:06:47;24.50;;;11.80;;
8538;SDS011;4307;53.868;11.680;2022-11-12T07:09:13;24.80;;;10.87;;
8538;SDS011;4307;53.868;11.680;2022-11-12T07:11:40;23.23;;;10.93;;
8538;SDS011;4307;53.868;11.680;2022-11-12T07:14:07;18.13;;;10.87;;
8538;SDS011;4307;53.868;11.680;2022-11-12T07:16:34;21.47;;;10.73;;
8538;SDS011;4307;53.868;11.680;2022-11-12T07:19:00;17.83;;;11.17;;
8538;SDS011;4307;53.868;11.680;2022-11-12T07:21:27;25.73;;;11.33;;
8538;SDS011;4307;53.868;11.680;2022-11-12T07:23:55;17.53;;;10.40;;
8538;SDS011;4307;53.868;11.680;2022-11-12T07:26:22;19.73;;;10.83;;
8538;SDS011;4307;53.868;11.680;2022-11-12T07:28:51;18.87;;;10.50;;
8538;SDS011;4307;53.868;11.680;2022-11-12T07:31:20;15.33;;;10.87;;
8538;SDS011;4307;53.868;11.680;2022-11-12T07:33:48;16.67;;;11.10;;
8538;SDS011;4307;53.868;11.680;2022-11-12T07:36:15;20.07;;;10.30;;
8538;SDS011;4307;53.868;11.680;2022-11-12T07:38:43;17.43;;;10.53;;
8538;SDS011;4307;53.868;11.680;2022-11-12T07:41:11;17.07;;;10.70;;
8538;SDS011;4307;53.868;11.680;2022-11-12T07:43:40;17.37;;;10.77;;
8538;SDS011;4307;53.868;11.680;2022-11-12T07:46:09;17.40;;;10.63;;
8538;SDS011;4307;53.868;11.680;2022-11-12T07:48:37;16.73;;;9.60;;
8538;SDS011;4307;53.868;11.680;2022-11-12T07:51:05;17.03;;;10.77;;
8538;SDS011;4307;53.868;11.680;2022-11-12T07:53:32;20.13;;;10.80;;
8538;SDS011;4307;53.868;11.680;2022-11-12T07:56:00;17.23;;;10.53;;
8538;SDS011;4307;53.868;11.680;2022-11-12T07:58:30;15.73;;;10.90;;
8538;SDS011;4307;53.868;11.680;2022-11-12T08:01:05;18.77;;;11.27;;
8538;SDS011;4307;53.868;11.680;2022-11-12T08:03:33;19.13;;;10.63;;
8538;SDS011;4307;53.868;11.680;2022-11-12T08:06:00;19.80;;;11.87;;
8538;SDS011;4307;53.868;11.680;2022-11-12T08:08:27;21.17;;;11.40;;
8538;SDS011;4307;53.868;11.680;2022-11-12T08:10:54;18.20;;;10.83;;
8538;SDS011;4307;53.868;11.680;2022-11-12T08:13:21;19.10;;;10.37;;
8538;SDS011;4307;53.868;11.680;2022-11-12T08:15:50;19.40;;;11.47;;
8538;SDS011;4307;53.868;11.680;2022-11-12T08:18:17;14.83;;;10.30;;
8538;SDS011;4307;53.868;11.680;2022-11-12T08:20:43;17.40;;;10.47;;
8538;SDS011;4307;53.868;11.680;2022-11-12T08:23:10;20.50;;;11.10;;
8538;SDS011;4307;53.868;11.680;2022-11-12T08:25:36;17.87;;;10.70;;
8538;SDS011;4307;53.868;11.680;2022-11-12T08:28:03;17.87;;;9.97;;
8538;SDS011;4307;53.868;11.680;2022-11-12T08:30:30;21.10;;;11.67;;
8538;SDS011;4307;53.868;11.680;2022-11-12T08:32:58;21.40;;;10.57;;
8538;SDS011;4307;53.868;11.680;2022-11-12T08:35:27;21.03;;;11.87;;
8538;SDS011;4307;53.868;11.680;2022-11-12T08:37:56;22.10;;;11.77;;
8538;SDS011;4307;53.868;11.680;2022-11-12T08:40:23;19.57;;;11.87;;
8538;SDS011;4307;53.868;11.680;2022-11-12T08:42:55;18.33;;;10.60;;
8538;SDS011;4307;53.868;11.680;2022-11-12T08:45:22;19.53;;;11.03;;
8538;SDS011;4307;53.868;11.680;2022-11-12T08:47:49;17.80;;;11.00;;
8538;SDS011;4307;53.868;11.680;2022-11-12T08:50:17;20.83;;;11.67;;
8538;SDS011;4307;53.868;11.680;2022-11-12T08:52:44;19.30;;;11.70;;
8538;SDS011;4307;53.868;11.680;2022-11-12T08:55:11;21.33;;;11.30;;
8538;SDS011;4307;53.868;11.680;2022-11-12T08:57:38;19.63;;;11.90;;
8538;SDS011;4307;53.868;11.680;2022-11-12T09:00:06;21.10;;;11.57;;
8538;SDS011;4307;53.868;11.680;2022-11-12T09:02:34;16.93;;;10.43;;
8538;SDS011;4307;53.868;11.680;2022-11-12T09:05:00;18.33;;;10.90;;
8538;SDS011;4307;53.868;11.680;2022-11-12T09:07:28;23.90;;;12.03;;
8538;SDS011;4307;53.868;11.680;2022-11-12T09:09:55;19.53;;;11.23;;
8538;SDS011;4307;53.868;11.680;2022-11-12T09:12:22;18.70;;;11.20;;
8538;SDS011;4307;53.868;11.680;2022-11-12T09:14:48;19.73;;;11.50;;
8538;SDS011;4307;53.868;11.680;2022-11-12T09:17:15;16.77;;;11.10;;
8538;SDS011;4307;53.868;11.680;2022-11-12T09:19:42;20.57;;;11.43;;
8538;SDS011;4307;53.868;11.680;2022-11-12T09:22:08;18.37;;;11.27;;
8538;SDS011;4307;53.868;11.680;2022-11-12T09:24:36;19.13;;;11.70;;
8538;SDS011;4307;53.868;11.680;2022-11-12T09:27:03;17.83;;;10.83;;
8538;SDS011;4307;53.868;11.680;2022-11-12T09:29:30;19.67;;;11.53;;
8538;SDS011;4307;53.868;11.680;2022-11-12T09:31:56;17.80;;;10.40;;
8538;SDS011;4307;53.868;11.680;2022-11-12T09:34:23;16.73;;;10.10;;
8538;SDS011;4307;53.868;11.680;2022-11-12T09:36:50;16.13;;;11.07;;
8538;SDS011;4307;53.868;11.680;2022-11-12T09:39:17;15.67;;;9.03;;
8538;SDS011;4307;53.868;11.680;2022-11-12T09:41:45;16.70;;;10.27;;
8538;SDS011;4307;53.868;11.680;2022-11-12T09:44:12;21.33;;;11.87;;
8538;SDS011;4307;53.868;11.680;2022-11-12T09:46:43;15.63;;;10.43;;
8538;SDS011;4307;53.868;11.680;2022-11-12T09:49:14;21.03;;;11.20;;
8538;SDS011;4307;53.868;11.680;2022-11-12T09:51:45;19.90;;;10.87;;
8538;SDS011;4307;53.868;11.680;2022-11-12T09:54:17;16.57;;;9.40;;
8538;SDS011;4307;53.868;11.680;2022-11-12T09:56:48;18.93;;;11.07;;
8538;SDS011;4307;53.868;11.680;2022-11-12T09:59:16;18.27;;;10.27;;
8538;SDS011;4307;53.868;11.680;2022-11-12T10:01:46;17.13;;;10.87;;
8538;SDS011;4307;53.868;11.680;2022-11-12T10:07:22;19.47;;;10.50;;
8538;SDS011;4307;53.868;11.680;2022-11-12T10:09:58;16.23;;;10.00;;
8538;SDS011;4307;53.868;11.680;2022-11-12T10:12:35;19.47;;;10.63;;
8538;SDS011;4307;53.868;11.680;2022-11-12T10:18:19;20.03;;;11.00;;
8538;SDS011;4307;53.868;11.680;2022-11-12T10:20:58;16.83;;;10.53;;
8538;SDS011;4307;53.868;11.680;2022-11-12T10:23:35;15.57;;;10.10;;
8538;SDS011;4307;53.868;11.680;2022-11-12T10:26:10;14.90;;;9.60;;
8538;SDS011;4307;53.868;11.680;2022-11-12T10:28:41;13.67;;;9.60;;
8538;SDS011;4307;53.868;11.680;2022-11-12T10:31:11;14.97;;;9.90;;
8538;SDS011;4307;53.868;11.680;2022-11-12T10:33:39;18.10;;;10.20;;
8538;SDS011;4307;53.868;11.680;2022-11-12T10:36:11;14.90;;;9.47;;
8538;SDS011;4307;53.868;11.680;2022-11-12T10:38:46;18.07;;;10.60;;
8538;SDS011;4307;53.868;11.680;2022-11-12T10:41:20;12.77;;;9.47;;
8538;SDS011;4307;53.868;11.680;2022-11-12T10:43:53;13.87;;;9.30;;
8538;SDS011;4307;53.868;11.680;2022-11-12T10:46:25;14.80;;;10.20;;
8538;SDS011;4307;53.868;11.680;2022-11-12T10:48:55;18.03;;;9.63;;
8538;SDS011;4307;53.868;11.680;2022-11-12T10:51:24;19.37;;;10.60;;
8538;SDS011;4307;53.868;11.680;2022-11-12T10:53:53;14.67;;;9.93;;
8538;SDS011;4307;53.868;11.680;2022-11-12T10:56:22;13.80;;;9.63;;
8538;SDS011;4307;53.868;11.680;2022-11-12T11:01:40;17.37;;;9.67;;
8538;SDS011;4307;53.868;11.680;2022-11-12T11:04:14;16.07;;;9.70;;
8538;SDS011;4307;53.868;11.680;2022-11-12T11:06:44;13.73;;;9.03;;
8538;SDS011;4307;53.868;11.680;2022-11-12T11:09:14;18.47;;;9.57;;
8538;SDS011;4307;53.868;11.680;2022-11-12T11:11:47;15.77;;;9.23;;
8538;SDS011;4307;53.868;11.680;2022-11-12T11:14:29;16.00;;;9.03;;
8538;SDS011;4307;53.868;11.680;2022-11-12T11:16:58;16.13;;;9.27;;
8538;SDS011;4307;53.868;11.680;2022-11-12T11:19:31;13.73;;;9.53;;
8538;SDS011;4307;53.868;11.680;2022-11-12T11:22:04;17.23;;;9.77;;
8538;SDS011;4307;53.868;11.680;2022-11-12T11:24:41;15.93;;;9.40;;
8538;SDS011;4307;53.868;11.680;2022-11-12T11:27:22;13.30;;;8.60;;
8538;SDS011;4307;53.868;11.680;2022-11-12T11:30:04;12.63;;;8.93;;
8538;SDS011;4307;53.868;11.680;2022-11-12T11:35:27;12.77;;;9.30;;
8538;SDS011;4307;53.868;11.680;2022-11-12T11:38:06;13.03;;;9.03;;
8538;SDS011;4307;53.868;11.680;2022-11-12T11:40:46;15.70;;;8.87;;
8538;SDS011;4307;53.868;11.680;2022-11-12T11:43:35;15.03;;;9.10;;
8538;SDS011;4307;53.868;11.680;2022-11-12T11:46:15;13.57;;;9.13;;
8538;SDS011;4307;53.868;11.680;2022-11-12T11:48:53;15.00;;;8.53;;
8538;SDS011;4307;53.868;11.680;2022-11-12T11:51:39;12.63;;;8.53;;
8538;SDS011;4307;53.868;11.680;2022-11-12T11:54:20;10.33;;;8.00;;
8538;SDS011;4307;53.868;11.680;2022-11-12T11:57:01;13.73;;;8.37;;
8538;SDS011;4307;53.868;11.680;2022-11-12T11:59:38;14.83;;;8.50;;
8538;SDS011;4307;53.868;11.680;2022-11-12T12:02:19;15.37;;;8.73;;
8538;SDS011;4307;53.868;11.680;2022-11-12T12:04:59;12.93;;;7.60;;
8538;SDS011;4307;53.868;11.680;2022-11-12T12:07:35;11.07;;;8.17;;
8538;SDS011;4307;53.868;11.680;2022-11-12T12:10:11;14.83;;;8.20;;
8538;SDS011;4307;53.868;11.680;2022-11-12T12:12:49;13.47;;;8.17;;
8538;SDS011;4307;53.868;11.680;2022-11-12T12:18:14;13.00;;;8.17;;
8538;SDS011;4307;53.868;11.680;2022-11-12T12:20:51;12.63;;;7.63;;
8538;SDS011;4307;53.868;11.680;2022-11-12T12:23:24;12.83;;;7.27;;
8538;SDS011;4307;53.868;11.680;2022-11-12T12:25:57;14.80;;;7.53;;
8538;SDS011;4307;53.868;11.680;2022-11-12T12:28:32;11.43;;;8.10;;
8538;SDS011;4307;53.868;11.680;2022-11-12T12:31:06;12.87;;;7.37;;
8538;SDS011;4307;53.868;11.680;2022-11-12T12:33:41;17.20;;;9.20;;
8538;SDS011;4307;53.868;11.680;2022-11-12T12:36:13;13.53;;;7.97;;
8538;SDS011;4307;53.868;11.680;2022-11-12T12:38:43;11.23;;;8.00;;
8538;SDS011;4307;53.868;11.680;2022-11-12T12:41:15;12.53;;;7.97;;
8538;SDS011;4307;53.868;11.680;2022-11-12T12:43:51;13.37;;;8.13;;
8538;SDS011;4307;53.868;11.680;2022-11-12T12:46:22;14.07;;;9.20;;
8538;SDS011;4307;53.868;11.680;2022-11-12T12:48:53;14.50;;;7.90;;
8538;SDS011;4307;53.868;11.680;2022-11-12T12:51:21;15.03;;;8.13;;
8538;SDS011;4307;53.868;11.680;2022-11-12T12:53:48;10.60;;;8.10;;
8538;SDS011;4307;53.868;11.680;2022-11-12T12:59:19;14.93;;;8.33;;
8538;SDS011;4307;53.868;11.680;2022-11-12T13:01:58;13.03;;;8.43;;
8538;SDS011;4307;53.868;11.680;2022-11-12T13:07:17;12.10;;;8.00;;
8538;SDS011;4307;53.868;11.680;2022-11-12T13:09:47;13.50;;;8.50;;
8538;SDS011;4307;53.868;11.680;2022-11-12T13:12:15;15.23;;;8.90;;
8538;SDS011;4307;53.868;11.680;2022-11-12T13:17:45;13.77;;;8.73;;
8538;SDS011;4307;53.868;11.680;2022-11-12T13:20:23;12.03;;;8.37;;
8538;SDS011;4307;53.868;11.680;2022-11-12T13:23:00;14.30;;;8.73;;
8538;SDS011;4307;53.868;11.680;2022-11-12T13:25:28;14.23;;;8.17;;
8538;SDS011;4307;53.868;11.680;2022-11-12T13:28:02;13.77;;;8.33;;
8538;SDS011;4307;53.868;11.680;2022-11-12T13:30:55;13.43;;;8.87;;
8538;SDS011;4307;53.868;11.680;2022-11-12T13:33:30;11.97;;;8.10;;
8538;SDS011;4307;53.868;11.680;2022-11-12T13:39:09;18.37;;;8.63;;
8538;SDS011;4307;53.868;11.680;2022-11-12T13:41:39;15.77;;;8.37;;
8538;SDS011;4307;53.868;11.680;2022-11-12T13:44:23;13.17;;;8.77;;
8538;SDS011;4307;53.868;11.680;2022-11-12T13:46:50;13.13;;;7.77;;
8538;SDS011;4307;53.868;11.680;2022-11-12T13:49:19;13.53;;;8.70;;
8538;SDS011;4307;53.868;11.680;2022-11-12T13:51:47;14.27;;;8.23;;
8538;SDS011;4307;53.868;11.680;2022-11-12T13:54:27;15.87;;;8.43;;
8538;SDS011;4307;53.868;11.680;2022-11-12T13:57:11;13.83;;;7.87;;
8538;SDS011;4307;53.868;11.680;2022-11-12T13:59:40;12.53;;;7.17;;
8538;SDS011;4307;53.868;11.680;2022-11-12T14:02:13;15.90;;;7.63;;
8538;SDS011;4307;53.868;11.680;2022-11-12T14:04:46;14.83;;;8.30;;
8538;SDS011;4307;53.868;11.680;2022-11-12T14:07:21;19.10;;;7.87;;
8538;SDS011;4307;53.868;11.680;2022-11-12T14:10:05;10.53;;;7.60;;
8538;SDS011;4307;53.868;11.680;2022-11-12T14:12:47;13.73;;;7.47;;
8538;SDS011;4307;53.868;11.680;2022-11-12T14:15:32;16.53;;;7.53;;
8538;SDS011;4307;53.868;11.680;2022-11-12T14:18:14;11.43;;;6.90;;
8538;SDS011;4307;53.868;11.680;2022-11-12T14:20:48;11.63;;;6.70;;
8538;SDS011;4307;53.868;11.680;2022-11-12T14:23:17;13.03;;;6.43;;
8538;SDS011;4307;53.868;11.680;2022-11-12T14:25:46;10.20;;;5.80;;
8538;SDS011;4307;53.868;11.680;2022-11-12T14:28:23;9.73;;;6.37;;
8538;SDS011;4307;53.868;11.680;2022-11-12T14:30:52;14.43;;;7.47;;
8538;SDS011;4307;53.868;11.680;2022-11-12T14:33:20;10.17;;;6.60;;
8538;SDS011;4307;53.868;11.680;2022-11-12T14:35:48;12.63;;;6.77;;
8538;SDS011;4307;53.868;11.680;2022-11-12T14:38:18;11.50;;;6.50;;
8538;SDS011;4307;53.868;11.680;2022-11-12T14:40:48;9.63;;;6.13;;
8538;SDS011;4307;53.868;11.680;2022-11-12T14:43:24;8.07;;;5.87;;
8538;SDS011;4307;53.868;11.680;2022-11-12T14:45:56;9.30;;;6.53;;
8538;SDS011;4307;53.868;11.680;2022-11-12T14:48:24;10.43;;;6.63;;
8538;SDS011;4307;53.868;11.680;2022-11-12T14:50:54;9.53;;;6.17;;
8538;SDS011;4307;53.868;11.680;2022-11-12T14:53:26;12.90;;;6.93;;
8538;SDS011;4307;53.868;11.680;2022-11-12T14:55:56;8.87;;;6.50;;
8538;SDS011;4307;53.868;11.680;2022-11-12T14:58:23;9.97;;;6.17;;
8538;SDS011;4307;53.868;11.680;2022-11-12T15:00:52;12.20;;;6.67;;
8538;SDS011;4307;53.868;11.680;2022-11-12T15:03:21;9.37;;;7.07;;
8538;SDS011;4307;53.868;11.680;2022-11-12T15:05:53;10.07;;;6.67;;
8538;SDS011;4307;53.868;11.680;2022-11-12T15:08:30;14.13;;;6.80;;
8538;SDS011;4307;53.868;11.680;2022-11-12T15:13:48;13.60;;;8.00;;
8538;SDS011;4307;53.868;11.680;2022-11-12T15:16:17;11.20;;;6.60;;
8538;SDS011;4307;53.868;11.680;2022-11-12T15:18:55;12.33;;;7.60;;
8538;SDS011;4307;53.868;11.680;2022-11-12T15:21:28;12.80;;;6.63;;
8538;SDS011;4307;53.868;11.680;2022-11-12T15:23:58;11.37;;;7.33;;
8538;SDS011;4307;53.868;11.680;2022-11-12T15:26:31;8.83;;;6.80;;
8538;SDS011;4307;53.868;11.680;2022-11-12T15:29:00;12.03;;;7.10;;